Time;durP1;ratioP1;P1;durP2;ratioP2;P2;SDS_P1;SDS_P2;PMS_P1;PMS_P2;Temp;Humidity;BMP_temperature;BMP_pressure;BME280_temperature;BME280_humidity;BME280_pressure;Samples;Min_cycle;Max_cycle;Signal;HPM_P1;HPM_P2
2023/09/10 00:02:08;;;;;;;9.52;8.73;;;;;;;18.31;100.00;101209.16;6128411;23;20095;-72
2023/09/10 00:04:34;;;;;;;9.65;8.77;;;;;;;18.11;100.00;101185.91;6135569;23;20029;-73
2023/09/10 00:07:01;;;;;;;8.40;7.78;;;;;;;17.90;100.00;101151.19;6127339;23;20037;-74
2023/09/10 00:09:28;;;;;;;9.68;8.68;;;;;;;17.80;100.00;101134.25;6092699;23;20366;-72
2023/09/10 00:11:54;;;;;;;8.98;8.20;;;;;;;17.86;100.00;101158.56;6120178;23;20039;-74
2023/09/10 00:14:20;;;;;;;9.00;8.23;;;;;;;17.89;100.00;101168.94;6095342;23;20040;-75
2023/09/10 00:16:47;;;;;;;9.20;8.40;;;;;;;17.81;100.00;101166.00;6132244;23;20031;-74
2023/09/10 00:19:15;;;;;;;8.25;7.38;;;;;;;18.22;100.00;101217.84;6124449;23;20102;-74
2023/09/10 00:21:42;;;;;;;9.70;8.80;;;;;;;18.17;100.00;101225.28;6127854;23;20022;-73
2023/09/10 00:24:10;;;;;;;9.45;8.65;;;;;;;18.13;100.00;101226.50;6133274;23;20025;-74
2023/09/10 00:26:37;;;;;;;8.82;7.90;;;;;;;17.60;100.00;101143.72;6099285;23;20043;-74
2023/09/10 00:29:06;;;;;;;8.50;7.80;;;;;;;17.65;100.00;101155.69;6132861;23;20017;-74
2023/09/10 00:31:33;;;;;;;9.43;8.52;;;;;;;17.89;100.00;101200.81;6126719;23;20021;-73
2023/09/10 00:34:00;;;;;;;10.00;9.00;;;;;;;17.94;100.00;101225.22;6121893;23;20017;-75
2023/09/10 00:36:26;;;;;;;10.50;9.00;;;;;;;17.84;100.00;101204.78;6131399;23;20044;-75
2023/09/10 00:38:53;;;;;;;9.45;8.57;;;;;;;17.83;100.00;101205.72;6130183;23;20033;-72
2023/09/10 00:41:19;;;;;;;8.60;7.95;;;;;;;17.94;100.00;101230.53;6134802;23;20025;-73
2023/09/10 00:43:45;;;;;;;8.90;8.10;;;;;;;17.06;100.00;101102.56;6128861;23;20022;-76
2023/09/10 00:46:12;;;;;;;8.73;8.00;;;;;;;17.49;100.00;101148.00;6132975;23;20009;-75
2023/09/10 00:48:39;;;;;;;12.43;8.07;;;;;;;17.22;100.00;101119.06;6126048;23;20560;-72
2023/09/10 00:51:06;;;;;;;10.20;8.68;;;;;;;17.89;100.00;101227.38;6088004;23;20031;-73
2023/09/10 00:53:35;;;;;;;9.30;8.45;;;;;;;17.39;100.00;101149.66;6113513;23;20029;-72
2023/09/10 00:56:02;;;;;;;9.85;8.55;;;;;;;17.82;100.00;101242.03;6094205;23;20092;-74
2023/09/10 00:58:32;;;;;;;9.32;8.43;;;;;;;17.47;100.00;101187.09;6111137;23;20035;-73
2023/09/10 01:00:58;;;;;;;9.32;8.27;;;;;;;17.47;100.00;101179.13;6114670;23;20644;-74
2023/09/10 01:03:26;;;;;;;8.77;7.97;;;;;;;17.82;100.00;101244.69;6112178;23;20221;-73
2023/09/10 01:05:53;;;;;;;8.60;7.85;;;;;;;17.82;100.00;101236.75;6115266;23;20049;-72
2023/09/10 01:08:20;;;;;;;9.00;7.88;;;;;;;17.83;100.00;101241.09;6085468;23;20022;-73
2023/09/10 01:11:01;;;;;;;14.48;9.35;;;;;;;17.81;100.00;101237.69;6091354;23;20021;-72
2023/09/10 01:14:05;;;;;;;8.77;7.97;;;;;;;17.78;100.00;101239.72;6060270;23;20562;-75
2023/09/10 01:17:03;;;;;;;13.40;8.40;;;;;;;17.75;100.00;101267.34;6090679;23;20481;-73
2023/09/10 01:19:52;;;;;;;9.48;8.57;;;;;;;17.72;100.00;101241.00;6109185;23;20029;-76
2023/09/10 01:22:36;;;;;;;8.27;7.57;;;;;;;17.50;100.00;101199.28;6120053;23;20476;-74
2023/09/10 01:25:04;;;;;;;10.65;8.35;;;;;;;17.69;100.00;101241.25;6088059;23;20013;-72
2023/09/10 01:27:30;;;;;;;9.13;8.23;;;;;;;17.68;100.00;101247.50;6122763;23;20089;-74
2023/09/10 01:29:56;;;;;;;8.68;7.82;;;;;;;17.55;100.00;101235.13;6122652;23;20535;-75
2023/09/10 01:32:28;;;;;;;11.60;8.20;;;;;;;17.65;100.00;101245.09;6119060;23;20040;-73
2023/09/10 01:35:18;;;;;;;9.38;8.55;;;;;;;16.70;100.00;101094.50;6123987;23;20602;-72
2023/09/10 01:38:16;;;;;;;8.60;7.70;;;;;;;17.62;100.00;101250.59;6100028;23;20089;-72
2023/09/10 01:40:48;;;;;;;9.30;8.23;;;;;;;17.57;100.00;101244.81;6116265;23;20033;-74
2023/09/10 01:43:16;;;;;;;9.55;8.65;;;;;;;17.57;100.00;101256.25;6116935;23;20618;-75
2023/09/10 01:45:43;;;;;;;8.77;8.07;;;;;;;17.32;100.00;101228.03;6129784;17;20021;-76
2023/09/10 01:48:10;;;;;;;9.38;8.48;;;;;;;17.12;100.00;101189.66;6060104;23;20027;-75
2023/09/10 01:50:37;;;;;;;10.25;9.25;;;;;;;17.15;100.00;101206.19;6117536;23;20025;-77
2023/09/10 01:53:03;;;;;;;9.60;8.80;;;;;;;17.14;100.00;101201.00;6080759;23;20390;-74
2023/09/10 01:55:30;;;;;;;9.20;8.40;;;;;;;17.18;100.00;101212.22;6081657;23;20095;-74
2023/09/10 01:57:56;;;;;;;9.00;8.20;;;;;;;17.47;100.00;101264.03;6088656;23;20017;-75
2023/09/10 02:00:22;;;;;;;8.93;8.13;;;;;;;17.46;100.00;101267.66;6089108;23;20651;-75
2023/09/10 02:02:49;;;;;;;9.77;8.70;;;;;;;17.09;100.00;101235.78;6083011;23;20116;-73
2023/09/10 02:05:16;;;;;;;9.88;8.88;;;;;;;17.11;100.00;101225.94;6083081;23;20260;-74
2023/09/10 02:07:42;;;;;;;8.55;7.85;;;;;;;17.29;100.00;101265.38;6082684;23;20088;-74
2023/09/10 02:10:10;;;;;;;9.20;8.27;;;;;;;17.34;100.00;101276.50;6086070;23;20018;-74
2023/09/10 02:12:37;;;;;;;8.85;8.00;;;;;;;17.33;100.00;101266.84;6083965;23;20057;-74
2023/09/10 02:15:06;;;;;;;9.23;8.50;;;;;;;16.84;100.00;101201.38;6083907;23;20040;-73
2023/09/10 02:17:33;;;;;;;9.60;7.97;;;;;;;17.27;100.00;101272.59;6085220;23;20049;-74
2023/09/10 02:19:59;;;;;;;15.63;9.02;;;;;;;16.60;100.00;101180.06;6085980;23;20086;-77
2023/09/10 02:22:26;;;;;;;8.15;7.45;;;;;;;17.25;100.00;101274.50;6078350;23;20497;-73
2023/09/10 02:24:52;;;;;;;9.05;8.25;;;;;;;17.08;100.00;101257.16;6086286;23;20047;-74
2023/09/10 02:27:19;;;;;;;9.57;8.73;;;;;;;17.08;100.00;101263.28;6083981;23;20036;-74
2023/09/10 02:29:45;;;;;;;10.85;9.75;;;;;;;16.98;100.00;101262.25;6088031;23;20040;-74
2023/09/10 02:32:11;;;;;;;9.30;8.50;;;;;;;16.80;100.00;101226.34;6083908;23;20400;-75
2023/09/10 02:34:38;;;;;;;9.63;8.77;;;;;;;16.92;100.00;101237.00;6086069;23;20110;-75
2023/09/10 02:37:04;;;;;;;9.93;9.02;;;;;;;17.19;100.00;101290.84;6084435;23;20025;-73
2023/09/10 02:39:31;;;;;;;11.20;8.45;;;;;;;17.03;100.00;101270.72;6079211;23;20371;-74
2023/09/10 02:41:57;;;;;;;10.15;9.15;;;;;;;17.14;100.00;101297.34;6084282;23;20032;-73
2023/09/10 02:44:24;;;;;;;9.50;8.45;;;;;;;17.02;100.00;101281.41;6082026;23;20029;-74
2023/09/10 02:46:50;;;;;;;9.27;8.35;;;;;;;16.70;100.00;101237.63;6085075;23;20026;-75
2023/09/10 02:49:16;;;;;;;9.48;7.90;;;;;;;16.99;100.00;101305.50;6085110;23;20029;-74
2023/09/10 02:51:43;;;;;;;9.75;8.75;;;;;;;17.10;100.00;101303.81;6085956;23;20024;-73
2023/09/10 02:54:09;;;;;;;9.23;8.45;;;;;;;17.08;100.00;101316.34;6084115;23;20021;-74
2023/09/10 02:56:36;;;;;;;11.65;9.73;;;;;;;17.07;100.00;101308.47;6078271;23;20448;-75
2023/09/10 02:59:02;;;;;;;9.70;8.80;;;;;;;17.06;100.00;101315.59;6083707;23;20451;-73
2023/09/10 03:01:29;;;;;;;8.48;7.78;;;;;;;17.06;100.00;101307.63;6086247;23;20089;-75
2023/09/10 03:03:55;;;;;;;9.65;8.75;;;;;;;15.71;100.00;101095.13;6080683;23;20103;-74
2023/09/10 03:06:22;;;;;;;10.73;9.18;;;;;;;16.77;100.00;101271.66;6079578;23;20174;-74
2023/09/10 03:08:48;;;;;;;10.57;9.07;;;;;;;16.68;100.00;101284.59;6060547;23;20026;-75
2023/09/10 03:11:15;;;;;;;12.32;9.38;;;;;;;16.60;100.00;101252.47;6058672;23;20089;-76
2023/09/10 03:13:41;;;;;;;15.63;10.23;;;;;;;16.60;100.00;101257.78;6084810;23;20021;-76
2023/09/10 03:16:08;;;;;;;10.25;9.20;;;;;;;16.72;100.00;101283.41;6079977;23;20480;-76
2023/09/10 03:18:34;;;;;;;9.15;8.32;;;;;;;16.89;100.00;101310.59;6082728;23;20026;-76
2023/09/10 03:21:03;;;;;;;9.55;8.75;;;;;;;16.97;100.00;101320.69;6084478;23;20085;-75
2023/09/10 03:23:29;;;;;;;9.50;8.52;;;;;;;16.66;100.00;101275.91;6083911;23;20326;-76
2023/09/10 03:25:56;;;;;;;9.23;8.43;;;;;;;16.82;100.00;101298.72;6082197;23;20030;-76
2023/09/10 03:28:22;;;;;;;9.32;8.52;;;;;;;16.93;100.00;101318.22;6082653;23;20155;-75
2023/09/10 03:30:49;;;;;;;9.55;8.65;;;;;;;16.92;100.00;101319.19;6081317;23;21092;-76
2023/09/10 03:33:15;;;;;;;8.73;8.02;;;;;;;16.72;100.00;101288.72;6056589;23;20014;-77
2023/09/10 03:35:41;;;;;;;11.38;8.32;;;;;;;16.57;100.00;101268.56;6080775;23;20046;-76
2023/09/10 03:38:08;;;;;;;8.82;8.13;;;;;;;16.77;100.00;101285.75;6081304;23;20358;-74
2023/09/10 03:40:34;;;;;;;9.35;8.43;;;;;;;17.02;100.00;101323.84;6084878;23;20599;-74
2023/09/10 03:43:01;;;;;;;8.20;7.57;;;;;;;17.06;100.00;101334.16;6082278;23;20479;-74
2023/09/10 03:45:28;;;;;;;9.40;8.55;;;;;;;16.82;100.00;101290.75;6061188;23;20030;-74
2023/09/10 03:47:54;;;;;;;10.68;8.73;;;;;;;16.68;100.00;101266.03;6056636;23;20026;-76
2023/09/10 03:50:21;;;;;;;9.80;8.90;;;;;;;17.08;100.00;101329.59;6054178;23;20057;-74
2023/09/10 03:52:47;;;;;;;9.80;8.82;;;;;;;16.81;100.00;101286.38;6056880;23;20669;-77
2023/09/10 03:55:15;;;;;;;10.32;9.13;;;;;;;16.63;100.00;101272.59;6055465;23;20022;-74
2023/09/10 03:57:41;;;;;;;12.90;9.38;;;;;;;16.24;100.00;101186.97;6059654;23;20023;-75
2023/09/10 04:00:08;;;;;;;9.93;9.02;;;;;;;16.97;100.00;101324.16;6054790;23;20106;-74
2023/09/10 04:02:34;;;;;;;10.20;9.18;;;;;;;17.06;100.00;101343.88;6058594;23;20046;-74
2023/09/10 04:05:02;;;;;;;10.45;9.38;;;;;;;17.01;100.00;101338.91;6054846;23;20660;-74
2023/09/10 04:07:29;;;;;;;16.45;8.90;;;;;;;16.62;100.00;101285.00;6051837;23;20026;-73
2023/09/10 04:09:55;;;;;;;10.45;9.55;;;;;;;16.94;100.00;101337.66;6051099;23;20037;-75
2023/09/10 04:12:21;;;;;;;12.38;9.27;;;;;;;16.92;100.00;101336.91;6056023;23;20023;-75
2023/09/10 04:14:48;;;;;;;10.27;9.18;;;;;;;16.84;100.00;101332.13;6061654;23;20026;-75
2023/09/10 04:17:16;;;;;;;9.82;8.82;;;;;;;16.72;100.00;101325.00;6059736;23;20237;-74
2023/09/10 04:19:43;;;;;;;9.93;8.90;;;;;;;16.82;100.00;101343.78;6057086;23;20208;-73
2023/09/10 04:22:10;;;;;;;14.10;11.35;;;;;;;16.82;100.00;101347.28;6056140;23;20046;-74
2023/09/10 04:24:37;;;;;;;10.55;9.65;;;;;;;16.85;100.00;101362.13;6060720;23;20018;-74
2023/09/10 04:27:03;;;;;;;10.13;9.23;;;;;;;16.89;100.00;101339.75;6047357;23;20014;-74
2023/09/10 04:29:30;;;;;;;12.15;10.25;;;;;;;16.87;100.00;101336.38;6062315;23;20108;-74
2023/09/10 04:31:57;;;;;;;10.27;9.25;;;;;;;16.95;100.00;101339.34;6054860;23;20030;-74
2023/09/10 04:34:23;;;;;;;11.30;9.80;;;;;;;16.66;100.00;101297.09;6053464;23;20023;-74
2023/09/10 04:36:50;;;;;;;14.63;10.07;;;;;;;16.49;100.00;101276.19;6068139;23;20022;-74
2023/09/10 04:39:19;;;;;;;10.57;9.48;;;;;;;17.02;100.00;101348.56;6056447;23;20640;-76
2023/09/10 04:41:45;;;;;;;10.48;9.45;;;;;;;16.55;100.00;101270.47;6054566;23;20025;-74
2023/09/10 04:44:12;;;;;;;10.93;9.80;;;;;;;16.91;100.00;101335.19;6062256;23;20022;-74
2023/09/10 04:46:38;;;;;;;11.95;9.35;;;;;;;16.73;100.00;101308.13;6083845;23;20075;-74
2023/09/10 04:49:05;;;;;;;11.95;9.90;;;;;;;16.75;100.00;101317.66;6081227;23;20049;-74
2023/09/10 04:51:31;;;;;;;10.57;9.27;;;;;;;17.06;100.00;101363.31;6084021;23;20028;-73
2023/09/10 04:53:58;;;;;;;11.10;10.00;;;;;;;16.84;100.00;101318.00;6083645;23;20367;-72
2023/09/10 04:56:24;;;;;;;11.13;9.85;;;;;;;17.10;100.00;101359.50;6082147;23;20032;-74
2023/09/10 04:58:51;;;;;;;12.52;9.45;;;;;;;17.10;100.00;101361.31;6085631;23;20029;-72
2023/09/10 05:01:17;;;;;;;10.73;9.77;;;;;;;17.12;100.00;101368.19;6082425;23;20071;-73
2023/09/10 05:03:44;;;;;;;12.35;10.90;;;;;;;16.65;100.00;101292.72;6060780;23;20458;-73
2023/09/10 05:06:12;;;;;;;13.20;9.75;;;;;;;16.90;100.00;101323.75;6087297;23;20038;-73
2023/09/10 05:08:39;;;;;;;14.35;10.82;;;;;;;17.19;100.00;101367.78;6085787;23;20476;-74
2023/09/10 05:11:06;;;;;;;12.40;9.75;;;;;;;17.01;100.00;101333.59;6086869;23;20440;-74
2023/09/10 05:13:32;;;;;;;14.45;9.90;;;;;;;17.04;100.00;101343.16;6061662;23;20045;-73
2023/09/10 05:15:59;;;;;;;15.80;9.98;;;;;;;17.16;100.00;101352.94;6061749;23;20029;-74
2023/09/10 05:18:26;;;;;;;11.30;10.20;;;;;;;17.32;100.00;101377.44;6056356;23;20037;-73
2023/09/10 05:20:53;;;;;;;14.02;9.68;;;;;;;17.33;100.00;101370.31;6084779;23;20026;-73
2023/09/10 05:23:26;;;;;;;11.07;10.02;;;;;;;17.02;100.00;101321.19;6083823;23;20029;-73
2023/09/10 05:25:55;;;;;;;10.68;9.70;;;;;;;16.98;100.00;101301.16;6080842;23;20034;-73
2023/09/10 05:28:22;;;;;;;16.40;10.00;;;;;;;17.52;100.00;101386.66;6085267;23;20034;-74
2023/09/10 05:30:48;;;;;;;12.48;10.18;;;;;;;17.23;100.00;101325.00;6062197;23;20087;-74
2023/09/10 05:33:15;;;;;;;9.95;8.90;;;;;;;17.43;100.00;101336.03;6084492;23;20089;-73
2023/09/10 05:35:41;;;;;;;19.00;10.25;;;;;;;17.63;100.00;101367.28;6084136;23;20010;-74
2023/09/10 05:38:10;;;;;;;12.07;10.70;;;;;;;17.60;100.00;101353.38;6083345;23;20065;-74
2023/09/10 05:40:37;;;;;;;10.77;9.68;;;;;;;17.37;100.00;101313.41;6083599;23;20097;-74
2023/09/10 05:43:04;;;;;;;13.02;10.40;;;;;;;17.59;100.00;101336.63;6085745;23;20084;-73
2023/09/10 05:45:33;;;;;;;10.80;9.52;;;;;;;17.84;100.00;101358.78;6083085;23;20001;-74
2023/09/10 05:48:00;;;;;;;10.07;9.10;;;;;;;17.60;100.00;101310.91;6084303;23;20018;-74
2023/09/10 05:50:27;;;;;;;14.32;10.30;;;;;;;17.88;100.00;101346.97;6085133;23;20018;-74
2023/09/10 05:52:56;;;;;;;11.10;9.77;;;;;;;17.77;100.00;101304.41;6084673;23;20151;-73
2023/09/10 05:55:24;;;;;;;13.43;10.73;;;;;;;18.14;100.00;101351.25;6085442;23;20045;-73
2023/09/10 05:57:52;;;;;;;10.90;9.60;;;;;;;17.78;100.00;101267.13;6060476;23;20025;-75
2023/09/10 06:00:20;;;;;;;11.93;10.02;;;;;;;17.84;100.00;101277.34;6084298;23;20513;-75
2023/09/10 06:02:47;;;;;;;14.02;10.13;;;;;;;17.62;100.00;101248.81;6086221;23;20046;-73
2023/09/10 06:05:15;;;;;;;11.25;9.85;;;;;;;17.92;100.00;101269.63;6084717;23;20083;-74
2023/09/10 06:07:42;;;;;;;12.63;10.40;;;;;;;18.43;100.00;101337.59;6085215;23;20559;-74
2023/09/10 06:10:09;;;;;;;11.73;10.52;;;;;;;18.22;100.00;101300.19;6087682;23;20075;-73
2023/09/10 06:12:39;;;;;;;12.63;9.95;;;;;;;18.57;100.00;101339.19;6083837;23;20064;-75
2023/09/10 06:15:07;;;;;;;10.77;9.68;;;;;;;18.60;100.00;101341.63;6084189;23;20030;-73
2023/09/10 06:17:34;;;;;;;13.38;9.70;;;;;;;18.71;100.00;101333.69;6082785;23;20037;-74
2023/09/10 06:20:02;;;;;;;12.30;9.43;;;;;;;18.79;100.00;101341.09;6086741;23;20109;-73
2023/09/10 06:22:29;;;;;;;10.18;9.20;;;;;;;18.30;100.00;101235.81;6079041;23;20022;-73
2023/09/10 06:24:55;;;;;;;12.95;9.50;;;;;;;18.95;100.00;101321.31;6082985;23;20036;-73
2023/09/10 06:27:22;;;;;;;10.20;9.27;;;;;;;19.04;100.00;101302.81;6084167;23;20030;-73
2023/09/10 06:29:48;;;;;;;9.95;8.88;;;;;;;19.26;100.00;101323.28;6084090;23;20022;-75
2023/09/10 06:32:15;;;;;;;18.08;9.93;;;;;;;19.02;100.00;101256.84;6085048;23;20018;-75
2023/09/10 06:34:42;;;;;;;9.77;8.88;;;;;;;19.57;100.00;101317.31;6059024;23;20547;-75
2023/09/10 06:37:09;;;;;;;11.50;10.40;;;;;;;19.64;100.00;101322.00;6059723;23;20010;-75
2023/09/10 06:39:38;;;;;;;10.32;9.30;;;;;;;19.65;100.00;101286.44;6082853;23;20178;-73
2023/09/10 06:42:11;;;;;;;10.52;8.88;;;;;;;19.88;100.00;101289.88;6083234;23;20083;-74
2023/09/10 06:44:38;;;;;;;10.02;9.13;;;;;;;19.87;100.00;101264.22;6072192;23;20100;-73
2023/09/10 06:47:05;;;;;;;10.80;9.65;;;;;;;19.63;100.00;101205.81;6048066;23;20527;-73
2023/09/10 06:49:31;;;;;;;10.40;9.50;;;;;;;19.58;100.00;101164.56;6058290;23;20044;-73
2023/09/10 06:51:58;;;;;;;13.25;8.57;;;;;;;19.88;100.00;101187.81;6064430;23;20058;-73
2023/09/10 06:54:24;;;;;;;10.50;9.38;;;;;;;20.15;100.00;101211.31;6058312;23;20366;-73
2023/09/10 06:56:51;;;;;;;11.50;9.63;;;;;;;19.83;100.00;101120.78;6057173;23;20042;-73
2023/09/10 06:59:17;;;;;;;13.15;10.32;;;;;;;20.32;100.00;101192.03;6060969;23;20037;-73
2023/09/10 07:01:44;;;;;;;10.90;9.20;;;;;;;20.44;100.00;101181.31;6056648;23;20038;-74
2023/09/10 07:04:19;;;;;;;10.40;9.30;;;;;;;19.87;100.00;101058.28;6075461;23;20512;-74
2023/09/10 07:06:47;;;;;;;16.23;9.18;;;;;;;20.63;100.00;101156.59;6053567;23;20034;-74
2023/09/10 07:09:17;;;;;;;11.20;10.20;;;;;;;20.91;100.00;101190.53;6065461;23;20014;-74
2023/09/10 07:11:44;;;;;;;10.43;9.23;;;;;;;20.59;100.00;101110.69;6059716;23;20025;-75
2023/09/10 07:14:10;;;;;;;9.75;8.60;;;;;;;21.14;100.00;101176.97;6056859;23;20017;-74
2023/09/10 07:16:37;;;;;;;10.38;8.85;;;;;;;20.84;100.00;101106.69;6053456;23;20038;-74
2023/09/10 07:19:03;;;;;;;11.90;8.98;;;;;;;21.15;100.00;101127.97;6055410;23;20043;-74
2023/09/10 07:21:29;;;;;;;10.38;9.20;;;;;;;21.24;100.00;101111.09;6050359;23;20030;-73
2023/09/10 07:23:56;;;;;;;11.18;9.40;;;;;;;21.29;100.00;101100.84;6060241;23;20092;-74
2023/09/10 07:26:23;;;;;;;9.38;8.48;;;;;;;21.38;100.00;101088.47;6057163;23;20030;-73
2023/09/10 07:28:50;;;;;;;10.23;9.32;;;;;;;21.44;100.00;101058.56;6064544;23;20042;-73
2023/09/10 07:31:16;;;;;;;9.45;8.65;;;;;;;21.92;100.00;101110.25;6064988;23;20432;-74
2023/09/10 07:33:43;;;;;;;8.90;8.10;;;;;;;21.56;100.00;101026.38;6062781;23;20032;-74
2023/09/10 07:36:09;;;;;;;9.55;8.73;;;;;;;19.62;100.00;100681.44;6056698;23;20022;-75
2023/09/10 07:38:36;;;;;;;9.35;8.55;;;;;;;22.38;100.00;101087.19;6056259;23;20026;-75
2023/09/10 07:41:03;;;;;;;10.27;9.38;;;;;;;22.41;100.00;101070.00;6060998;23;20093;-74
2023/09/10 07:43:31;;;;;;;9.27;8.38;;;;;;;22.55;99.78;101031.22;6060967;23;20082;-74
2023/09/10 07:45:58;;;;;;;8.98;8.13;;;;;;;22.89;96.72;101044.78;6078603;23;20022;-75
2023/09/10 07:48:25;;;;;;;17.02;8.75;;;;;;;23.00;95.94;101033.88;6081865;23;20034;-74
2023/09/10 07:50:59;;;;;;;9.60;8.70;;;;;;;22.96;93.74;101011.06;6083529;23;20041;-74
2023/09/10 07:53:25;;;;;;;8.85;8.23;;;;;;;23.01;93.95;101027.53;6080632;23;20158;-74
2023/09/10 07:55:52;;;;;;;9.88;7.78;;;;;;;23.12;93.38;101021.13;6083215;23;20181;-74
2023/09/10 07:58:18;;;;;;;10.05;8.68;;;;;;;23.27;92.98;101016.03;6085068;23;20059;-74
2023/09/10 08:00:45;;;;;;;10.25;8.23;;;;;;;23.26;91.77;100963.50;6081668;23;20028;-74
2023/09/10 08:03:13;;;;;;;8.93;8.02;;;;;;;23.32;90.53;100932.56;6083263;23;20370;-74
2023/09/10 08:05:42;;;;;;;10.38;8.60;;;;;;;22.95;88.53;100843.44;6082180;23;20248;-74
2023/09/10 08:08:11;;;;;;;9.25;8.35;;;;;;;23.69;87.88;100926.91;6082368;23;20508;-73
2023/09/10 08:10:38;;;;;;;8.55;7.80;;;;;;;23.93;85.10;100920.00;6077446;23;20077;-73
2023/09/10 08:13:04;;;;;;;8.68;8.05;;;;;;;23.98;84.98;100915.00;6082883;23;20053;-73
2023/09/10 08:15:31;;;;;;;9.35;8.38;;;;;;;23.75;83.14;100842.34;6079544;23;20189;-74
2023/09/10 08:17:58;;;;;;;8.90;8.00;;;;;;;24.27;82.98;100919.94;6083942;23;20399;-75
2023/09/10 08:20:24;;;;;;;8.50;7.88;;;;;;;24.33;81.70;100923.81;6080849;23;20010;-74
2023/09/10 08:22:51;;;;;;;10.10;7.93;;;;;;;24.29;81.34;100896.47;6082088;23;20087;-74
2023/09/10 08:25:17;;;;;;;8.55;7.75;;;;;;;24.67;80.30;100897.72;6082366;23;20030;-74
2023/09/10 08:27:44;;;;;;;8.90;8.10;;;;;;;24.60;77.30;100843.06;6079625;23;20046;-75
2023/09/10 08:30:11;;;;;;;9.88;8.63;;;;;;;24.35;79.26;100874.34;6083406;23;20014;-75
2023/09/10 08:32:37;;;;;;;9.18;8.32;;;;;;;24.74;78.41;100905.13;6057591;23;20041;-75
2023/09/10 08:35:04;;;;;;;8.70;8.00;;;;;;;24.93;77.93;100907.44;6081698;23;20152;-76
2023/09/10 08:37:31;;;;;;;8.43;7.72;;;;;;;25.07;76.42;100903.22;6081670;23;20029;-74
2023/09/10 08:39:57;;;;;;;9.25;8.18;;;;;;;25.25;75.91;100892.31;6082903;23;20623;-74
2023/09/10 08:42:40;;;;;;;15.23;8.85;;;;;;;25.27;75.30;100866.13;6077586;23;20021;-76
2023/09/10 08:45:09;;;;;;;9.00;8.13;;;;;;;25.39;72.90;100842.41;6055723;23;20034;-74
2023/09/10 08:47:43;;;;;;;9.10;8.00;;;;;;;25.01;72.02;100773.16;6082498;23;20389;-74
2023/09/10 08:50:12;;;;;;;8.70;8.10;;;;;;;25.06;72.51;100792.31;6074357;23;20042;-76
2023/09/10 08:52:43;;;;;;;9.30;8.32;;;;;;;25.75;72.99;100893.00;6080685;23;20073;-74
2023/09/10 08:55:11;;;;;;;8.57;7.78;;;;;;;25.68;70.74;100826.50;6079159;23;20496;-75
2023/09/10 08:57:40;;;;;;;8.38;7.78;;;;;;;25.53;70.19;100797.84;6080031;23;20037;-74
2023/09/10 09:00:12;;;;;;;9.32;8.02;;;;;;;25.33;69.09;100728.41;6053954;23;20079;-75
2023/09/10 09:02:40;;;;;;;8.90;8.10;;;;;;;26.11;69.21;100849.47;6056830;23;20038;-76
2023/09/10 09:05:07;;;;;;;8.52;7.82;;;;;;;25.58;68.44;100753.31;6079654;23;20265;-75
2023/09/10 09:07:42;;;;;;;8.82;8.13;;;;;;;26.18;68.12;100828.91;6076920;23;20030;-75
2023/09/10 09:10:13;;;;;;;8.43;7.60;;;;;;;26.11;68.08;100798.38;6075038;23;20315;-74
2023/09/10 09:12:41;;;;;;;8.27;7.50;;;;;;;26.48;66.45;100794.88;6079420;23;20027;-74
2023/09/10 09:15:09;;;;;;;8.02;7.35;;;;;;;26.42;64.89;100733.69;6055360;23;20199;-74
2023/09/10 09:17:38;;;;;;;8.13;7.53;;;;;;;26.88;65.54;100816.22;6079495;23;20320;-75
2023/09/10 09:20:10;;;;;;;8.27;7.68;;;;;;;26.92;64.01;100779.81;6079851;23;20026;-76
2023/09/10 09:22:41;;;;;;;8.27;7.68;;;;;;;27.06;64.18;100793.31;6077604;23;20405;-76
2023/09/10 09:25:09;;;;;;;8.60;7.88;;;;;;;26.80;61.95;100669.91;6077769;23;20166;-73
2023/09/10 09:27:37;;;;;;;8.15;7.50;;;;;;;27.01;61.86;100690.66;6079027;23;20030;-76
2023/09/10 09:30:07;;;;;;;7.90;7.30;;;;;;;26.94;60.87;100641.28;6054931;23;20034;-73
2023/09/10 09:32:36;;;;;;;8.55;7.75;;;;;;;27.57;60.47;100732.38;6080945;23;20041;-75
2023/09/10 09:35:03;;;;;;;8.70;8.00;;;;;;;27.52;59.71;100692.50;6085626;23;20024;-76
2023/09/10 09:37:33;;;;;;;8.15;7.45;;;;;;;27.67;60.75;100769.81;6085530;23;20021;-76
2023/09/10 09:40:00;;;;;;;7.93;7.43;;;;;;;27.31;60.16;100679.84;6087612;23;20471;-73
2023/09/10 09:42:27;;;;;;;9.25;7.60;;;;;;;27.91;59.25;100722.78;6084666;23;20021;-74
2023/09/10 09:44:54;;;;;;;12.60;8.02;;;;;;;28.08;58.98;100718.78;6060267;23;20046;-75
2023/09/10 09:47:21;;;;;;;7.93;7.32;;;;;;;28.03;56.82;100624.13;6084089;23;20081;-74
2023/09/10 09:49:48;;;;;;;8.52;7.82;;;;;;;28.09;56.91;100679.16;6085171;23;20069;-75
2023/09/10 09:52:17;;;;;;;8.52;7.82;;;;;;;28.45;56.91;100719.50;6057346;23;20366;-75
2023/09/10 09:54:47;;;;;;;8.32;7.30;;;;;;;28.45;55.61;100714.91;6058862;23;20319;-76
2023/09/10 09:57:15;;;;;;;8.15;7.65;;;;;;;28.16;55.68;100675.47;6062704;23;20038;-75
2023/09/10 09:59:41;;;;;;;8.52;7.82;;;;;;;28.59;55.35;100753.69;6083629;23;20068;-75
2023/09/10 10:02:14;;;;;;;7.68;7.18;;;;;;;28.74;55.38;100788.66;6084810;23;20017;-76
2023/09/10 10:04:42;;;;;;;8.27;7.68;;;;;;;28.99;54.87;100780.09;6084636;23;20276;-75
2023/09/10 10:07:11;;;;;;;9.35;7.40;;;;;;;29.01;55.41;100805.06;6085125;23;20038;-76
2023/09/10 10:09:51;;;;;;;;;;;;;;;29.16;53.30;100786.03;6084300;23;20048;-73
2023/09/10 10:12:19;;;;;;;8.15;7.25;;;;;;;29.12;53.14;100776.66;6084358;23;19937;-74
2023/09/10 10:14:47;;;;;;;8.15;7.55;;;;;;;29.13;52.64;100771.06;6047005;23;20025;-76
2023/09/10 10:17:16;;;;;;;8.05;7.30;;;;;;;29.23;52.41;100738.25;6057303;23;20014;-73
2023/09/10 10:19:43;;;;;;;8.00;7.40;;;;;;;29.49;51.40;100778.06;6055241;23;20041;-76
2023/09/10 10:22:10;;;;;;;8.05;7.18;;;;;;;29.25;51.93;100774.03;6084295;23;20021;-75
2023/09/10 10:24:39;;;;;;;10.82;7.55;;;;;;;29.20;50.48;100712.44;6079097;23;20037;-76
2023/09/10 10:27:07;;;;;;;8.50;7.70;;;;;;;29.62;51.13;100812.44;6075776;23;20491;-75
2023/09/10 10:29:34;;;;;;;8.15;7.47;;;;;;;29.54;50.38;100780.16;6055310;23;20037;-75
2023/09/10 10:32:06;;;;;;;8.13;7.50;;;;;;;29.70;50.48;100793.31;6083121;23;20819;-74
2023/09/10 10:34:39;;;;;;;9.88;7.90;;;;;;;29.58;50.97;100805.75;6081058;23;20268;-74
2023/09/10 10:37:36;;;;;;;7.90;6.88;;;;;;;29.64;50.32;100807.66;6078600;23;20044;-74
2023/09/10 10:40:17;;;;;;;7.93;7.32;;;;;;;30.01;50.68;100843.38;6056577;23;20025;-74
2023/09/10 10:43:08;;;;;;;7.97;7.28;;;;;;;29.90;49.64;100773.63;6084785;23;20121;-73
2023/09/10 10:45:35;;;;;;;7.88;7.30;;;;;;;29.48;49.27;100670.09;6075000;23;20018;-74
2023/09/10 10:48:11;;;;;;;8.40;7.20;;;;;;;30.58;49.22;100822.22;6082321;23;20037;-73
2023/09/10 10:50:39;;;;;;;8.18;7.57;;;;;;;30.19;48.56;100737.19;6053030;23;20009;-73
2023/09/10 10:53:34;;;;;;;8.00;7.40;;;;;;;30.42;49.35;100818.88;6074350;23;20101;-74
2023/09/10 10:56:03;;;;;;;9.52;7.45;;;;;;;30.46;50.84;100873.47;6054963;23;20026;-73
2023/09/10 10:58:32;;;;;;;8.10;7.60;;;;;;;30.78;49.31;100819.50;6071432;23;20033;-74
2023/09/10 11:00:59;;;;;;;8.10;7.40;;;;;;;30.40;48.86;100766.78;6074041;23;20101;-74
2023/09/10 11:03:26;;;;;;;7.78;7.18;;;;;;;30.66;49.47;100837.44;6076171;23;20531;-74
2023/09/10 11:05:57;;;;;;;8.38;7.68;;;;;;;30.60;50.16;100829.06;6078493;23;20057;-76
2023/09/10 11:08:31;;;;;;;8.60;7.90;;;;;;;30.39;50.29;100824.72;6082957;23;20029;-75
2023/09/10 11:10:59;;;;;;;8.45;7.80;;;;;;;30.78;49.40;100873.69;6059244;23;20602;-74
2023/09/10 11:13:25;;;;;;;7.70;7.18;;;;;;;30.76;48.61;100803.44;6083087;23;20525;-75
2023/09/10 11:16:04;;;;;;;7.93;7.40;;;;;;;31.10;48.20;100806.94;6075275;23;20038;-73
2023/09/10 11:18:37;;;;;;;7.60;7.10;;;;;;;31.18;48.65;100825.69;6079633;23;20316;-73
2023/09/10 11:21:16;;;;;;;8.80;8.07;;;;;;;31.36;48.62;100854.00;6074663;23;20018;-73
2023/09/10 11:23:51;;;;;;;7.80;7.22;;;;;;;31.50;48.80;100854.81;6076892;23;20040;-73